Terminal Aerodrome Forecast
Issued by NWS

Home | Current Version | Previous Version | Text Only | Print | Product List | Glossary On
Versions: 1 2 3 4 5 6 7 8 9 10 11 12
000
FTUS41 KBTV 011720
TAFRUT
TAF
KRUT 011720Z 0118/0218 15008KT P6SM OVC040
      TEMPO 0118/0122 14008KT 2SM -SN BR OVC025
     FM020000 16004KT 2SM -SN BR OVC020
     FM021100 VRB03KT P6SM OVC025
     FM021500 30008KT P6SM BKN070
      AMD LTD TO CLD VIS AND WIND=

USA.gov is the U.S. government's official web portal to all federal, state and local government web resources and services.